sensor_id;sensor_type;location;lat;lon;timestamp;P1;durP1;ratioP1;P2;durP2;ratioP2
9150;SDS011;4610;50.006;7.490;2023-02-28T00:00:23;1.57;;;1.23;;
9150;SDS011;4610;50.006;7.490;2023-02-28T00:02:50;3.20;;;1.50;;
9150;SDS011;4610;50.006;7.490;2023-02-28T00:05:18;1.83;;;1.30;;
9150;SDS011;4610;50.006;7.490;2023-02-28T00:07:47;1.60;;;1.20;;
9150;SDS011;4610;50.006;7.490;2023-02-28T00:10:17;1.50;;;1.10;;
9150;SDS011;4610;50.006;7.490;2023-02-28T00:12:45;2.10;;;1.43;;
9150;SDS011;4610;50.006;7.490;2023-02-28T00:15:12;2.33;;;1.27;;
9150;SDS011;4610;50.006;7.490;2023-02-28T00:17:39;1.53;;;1.37;;
9150;SDS011;4610;50.006;7.490;2023-02-28T00:20:06;1.53;;;1.20;;
9150;SDS011;4610;50.006;7.490;2023-02-28T00:22:35;1.93;;;1.33;;
9150;SDS011;4610;50.006;7.490;2023-02-28T00:25:03;3.00;;;1.37;;
9150;SDS011;4610;50.006;7.490;2023-02-28T00:27:33;1.73;;;1.20;;
9150;SDS011;4610;50.006;7.490;2023-02-28T00:30:00;2.13;;;1.30;;
9150;SDS011;4610;50.006;7.490;2023-02-28T00:32:27;2.73;;;1.37;;
9150;SDS011;4610;50.006;7.490;2023-02-28T00:34:54;1.97;;;1.50;;
9150;SDS011;4610;50.006;7.490;2023-02-28T00:37:21;2.07;;;1.50;;
9150;SDS011;4610;50.006;7.490;2023-02-28T00:39:48;3.23;;;1.40;;
9150;SDS011;4610;50.006;7.490;2023-02-28T00:42:15;1.40;;;1.20;;
9150;SDS011;4610;50.006;7.490;2023-02-28T00:44:43;1.50;;;1.30;;
9150;SDS011;4610;50.006;7.490;2023-02-28T00:47:10;1.67;;;1.30;;
9150;SDS011;4610;50.006;7.490;2023-02-28T00:49:37;1.57;;;1.20;;
9150;SDS011;4610;50.006;7.490;2023-02-28T00:52:03;1.47;;;1.37;;
9150;SDS011;4610;50.006;7.490;2023-02-28T00:54:30;1.30;;;1.20;;
9150;SDS011;4610;50.006;7.490;2023-02-28T00:56:57;1.60;;;1.13;;
9150;SDS011;4610;50.006;7.490;2023-02-28T00:59:24;1.40;;;1.30;;
9150;SDS011;4610;50.006;7.490;2023-02-28T01:01:52;2.53;;;1.40;;
9150;SDS011;4610;50.006;7.490;2023-02-28T01:04:19;1.50;;;1.40;;
9150;SDS011;4610;50.006;7.490;2023-02-28T01:06:45;1.50;;;1.13;;
9150;SDS011;4610;50.006;7.490;2023-02-28T01:09:12;3.30;;;1.50;;
9150;SDS011;4610;50.006;7.490;2023-02-28T01:11:39;2.20;;;1.40;;
9150;SDS011;4610;50.006;7.490;2023-02-28T01:14:09;2.40;;;1.33;;
9150;SDS011;4610;50.006;7.490;2023-02-28T01:16:39;2.10;;;1.30;;
9150;SDS011;4610;50.006;7.490;2023-02-28T01:19:08;2.13;;;1.20;;
9150;SDS011;4610;50.006;7.490;2023-02-28T01:21:35;3.40;;;1.10;;
9150;SDS011;4610;50.006;7.490;2023-02-28T01:24:02;2.13;;;1.50;;
9150;SDS011;4610;50.006;7.490;2023-02-28T01:26:29;2.27;;;1.40;;
9150;SDS011;4610;50.006;7.490;2023-02-28T01:28:56;1.40;;;1.27;;
9150;SDS011;4610;50.006;7.490;2023-02-28T01:31:23;1.77;;;1.40;;
9150;SDS011;4610;50.006;7.490;2023-02-28T01:33:50;2.37;;;1.50;;
9150;SDS011;4610;50.006;7.490;2023-02-28T01:36:19;3.10;;;1.73;;
9150;SDS011;4610;50.006;7.490;2023-02-28T01:38:47;6.73;;;1.50;;
9150;SDS011;4610;50.006;7.490;2023-02-28T01:41:15;5.00;;;1.83;;
9150;SDS011;4610;50.006;7.490;2023-02-28T01:43:58;3.07;;;1.80;;
9150;SDS011;4610;50.006;7.490;2023-02-28T01:46:28;3.63;;;1.97;;
9150;SDS011;4610;50.006;7.490;2023-02-28T01:48:57;2.77;;;1.70;;
9150;SDS011;4610;50.006;7.490;2023-02-28T01:51:31;2.40;;;2.00;;
9150;SDS011;4610;50.006;7.490;2023-02-28T01:54:02;2.33;;;2.03;;
9150;SDS011;4610;50.006;7.490;2023-02-28T01:56:33;2.63;;;2.17;;
9150;SDS011;4610;50.006;7.490;2023-02-28T01:59:02;1.97;;;1.57;;
9150;SDS011;4610;50.006;7.490;2023-02-28T02:01:29;2.70;;;1.90;;
9150;SDS011;4610;50.006;7.490;2023-02-28T02:03:57;3.37;;;1.97;;
9150;SDS011;4610;50.006;7.490;2023-02-28T02:06:27;4.00;;;1.87;;
9150;SDS011;4610;50.006;7.490;2023-02-28T02:09:00;2.13;;;1.70;;
9150;SDS011;4610;50.006;7.490;2023-02-28T02:11:28;2.50;;;1.83;;
9150;SDS011;4610;50.006;7.490;2023-02-28T02:17:04;2.73;;;2.17;;
9150;SDS011;4610;50.006;7.490;2023-02-28T02:22:49;2.87;;;1.90;;
9150;SDS011;4610;50.006;7.490;2023-02-28T02:25:42;2.60;;;2.17;;
9150;SDS011;4610;50.006;7.490;2023-02-28T02:31:21;3.40;;;2.30;;
9150;SDS011;4610;50.006;7.490;2023-02-28T02:34:29;2.97;;;2.57;;
9150;SDS011;4610;50.006;7.490;2023-02-28T02:37:09;4.00;;;2.43;;
9150;SDS011;4610;50.006;7.490;2023-02-28T02:39:44;3.50;;;2.13;;
9150;SDS011;4610;50.006;7.490;2023-02-28T02:42:18;5.13;;;2.87;;
9150;SDS011;4610;50.006;7.490;2023-02-28T02:44:50;4.83;;;2.57;;
9150;SDS011;4610;50.006;7.490;2023-02-28T02:47:23;4.60;;;2.50;;
9150;SDS011;4610;50.006;7.490;2023-02-28T02:49:54;3.63;;;2.23;;
9150;SDS011;4610;50.006;7.490;2023-02-28T02:52:24;3.43;;;2.63;;
9150;SDS011;4610;50.006;7.490;2023-02-28T02:54:56;4.57;;;2.50;;
9150;SDS011;4610;50.006;7.490;2023-02-28T02:57:24;3.03;;;2.43;;
9150;SDS011;4610;50.006;7.490;2023-02-28T02:59:56;4.17;;;2.80;;
9150;SDS011;4610;50.006;7.490;2023-02-28T03:02:23;4.87;;;2.87;;
9150;SDS011;4610;50.006;7.490;2023-02-28T03:04:51;4.47;;;2.80;;
9150;SDS011;4610;50.006;7.490;2023-02-28T03:07:26;4.13;;;2.77;;
9150;SDS011;4610;50.006;7.490;2023-02-28T03:09:54;4.03;;;3.00;;
9150;SDS011;4610;50.006;7.490;2023-02-28T03:12:22;5.73;;;3.00;;
9150;SDS011;4610;50.006;7.490;2023-02-28T03:14:56;4.93;;;3.43;;
9150;SDS011;4610;50.006;7.490;2023-02-28T03:20:32;4.63;;;3.10;;
9150;SDS011;4610;50.006;7.490;2023-02-28T03:23:09;4.20;;;3.47;;
9150;SDS011;4610;50.006;7.490;2023-02-28T03:25:45;4.57;;;3.17;;
9150;SDS011;4610;50.006;7.490;2023-02-28T03:28:23;6.17;;;3.23;;
9150;SDS011;4610;50.006;7.490;2023-02-28T06:12:36;5.70;;;3.97;;
9150;SDS011;4610;50.006;7.490;2023-02-28T06:15:03;6.70;;;4.13;;
9150;SDS011;4610;50.006;7.490;2023-02-28T06:17:30;5.17;;;3.67;;
9150;SDS011;4610;50.006;7.490;2023-02-28T06:19:57;6.43;;;3.83;;
9150;SDS011;4610;50.006;7.490;2023-02-28T06:22:24;6.27;;;3.63;;
9150;SDS011;4610;50.006;7.490;2023-02-28T06:24:51;8.47;;;4.00;;
9150;SDS011;4610;50.006;7.490;2023-02-28T06:27:19;5.37;;;3.43;;
9150;SDS011;4610;50.006;7.490;2023-02-28T06:29:48;4.83;;;3.60;;
9150;SDS011;4610;50.006;7.490;2023-02-28T06:32:15;18.70;;;7.93;;
9150;SDS011;4610;50.006;7.490;2023-02-28T06:34:42;24.03;;;10.57;;
9150;SDS011;4610;50.006;7.490;2023-02-28T06:37:09;37.67;;;18.40;;
9150;SDS011;4610;50.006;7.490;2023-02-28T06:39:35;6.97;;;4.40;;
9150;SDS011;4610;50.006;7.490;2023-02-28T06:42:02;5.77;;;4.10;;
9150;SDS011;4610;50.006;7.490;2023-02-28T06:44:29;6.30;;;3.50;;
9150;SDS011;4610;50.006;7.490;2023-02-28T06:47:01;5.73;;;3.63;;
9150;SDS011;4610;50.006;7.490;2023-02-28T06:49:29;5.20;;;3.87;;
9150;SDS011;4610;50.006;7.490;2023-02-28T06:51:56;4.47;;;3.70;;
9150;SDS011;4610;50.006;7.490;2023-02-28T06:54:23;5.87;;;3.90;;
9150;SDS011;4610;50.006;7.490;2023-02-28T06:56:50;5.00;;;3.70;;
9150;SDS011;4610;50.006;7.490;2023-02-28T06:59:16;8.63;;;3.77;;
9150;SDS011;4610;50.006;7.490;2023-02-28T07:01:43;4.93;;;3.60;;
9150;SDS011;4610;50.006;7.490;2023-02-28T07:04:11;4.23;;;3.30;;
9150;SDS011;4610;50.006;7.490;2023-02-28T07:06:39;6.00;;;3.20;;
9150;SDS011;4610;50.006;7.490;2023-02-28T07:09:05;3.77;;;3.20;;
9150;SDS011;4610;50.006;7.490;2023-02-28T07:11:32;3.70;;;3.00;;
9150;SDS011;4610;50.006;7.490;2023-02-28T07:13:59;3.60;;;3.07;;
9150;SDS011;4610;50.006;7.490;2023-02-28T07:16:26;4.80;;;2.77;;
9150;SDS011;4610;50.006;7.490;2023-02-28T07:18:53;6.60;;;3.10;;
9150;SDS011;4610;50.006;7.490;2023-02-28T07:21:21;4.73;;;3.30;;
9150;SDS011;4610;50.006;7.490;2023-02-28T07:23:48;4.03;;;3.10;;
9150;SDS011;4610;50.006;7.490;2023-02-28T07:26:16;5.67;;;3.33;;
9150;SDS011;4610;50.006;7.490;2023-02-28T07:28:45;3.57;;;2.90;;
9150;SDS011;4610;50.006;7.490;2023-02-28T07:31:13;3.93;;;3.23;;
9150;SDS011;4610;50.006;7.490;2023-02-28T07:33:41;9.73;;;4.23;;
9150;SDS011;4610;50.006;7.490;2023-02-28T07:36:09;8.90;;;4.57;;
9150;SDS011;4610;50.006;7.490;2023-02-28T07:38:41;4.67;;;3.40;;
9150;SDS011;4610;50.006;7.490;2023-02-28T07:41:09;5.03;;;3.77;;
9150;SDS011;4610;50.006;7.490;2023-02-28T07:43:36;4.93;;;2.60;;
9150;SDS011;4610;50.006;7.490;2023-02-28T07:46:03;4.47;;;3.03;;
9150;SDS011;4610;50.006;7.490;2023-02-28T07:48:30;4.07;;;3.20;;
9150;SDS011;4610;50.006;7.490;2023-02-28T07:50:58;3.77;;;3.00;;
9150;SDS011;4610;50.006;7.490;2023-02-28T07:53:26;5.13;;;3.33;;
9150;SDS011;4610;50.006;7.490;2023-02-28T07:55:55;5.33;;;3.30;;
9150;SDS011;4610;50.006;7.490;2023-02-28T07:58:22;4.37;;;3.20;;
9150;SDS011;4610;50.006;7.490;2023-02-28T08:00:49;3.97;;;2.90;;
9150;SDS011;4610;50.006;7.490;2023-02-28T08:03:17;4.77;;;2.97;;
9150;SDS011;4610;50.006;7.490;2023-02-28T08:05:44;5.03;;;3.20;;
9150;SDS011;4610;50.006;7.490;2023-02-28T08:08:11;3.80;;;2.83;;
9150;SDS011;4610;50.006;7.490;2023-02-28T08:10:38;10.37;;;3.43;;
9150;SDS011;4610;50.006;7.490;2023-02-28T08:13:06;5.30;;;3.20;;
9150;SDS011;4610;50.006;7.490;2023-02-28T08:15:33;3.80;;;2.70;;
9150;SDS011;4610;50.006;7.490;2023-02-28T08:18:00;2.83;;;2.53;;
9150;SDS011;4610;50.006;7.490;2023-02-28T08:20:26;3.60;;;2.73;;
9150;SDS011;4610;50.006;7.490;2023-02-28T08:22:53;3.27;;;2.77;;
9150;SDS011;4610;50.006;7.490;2023-02-28T08:25:20;4.27;;;2.60;;
9150;SDS011;4610;50.006;7.490;2023-02-28T08:27:47;3.87;;;2.43;;
9150;SDS011;4610;50.006;7.490;2023-02-28T08:30:18;2.60;;;2.27;;
9150;SDS011;4610;50.006;7.490;2023-02-28T08:32:46;3.10;;;2.30;;
9150;SDS011;4610;50.006;7.490;2023-02-28T08:35:13;3.37;;;2.10;;
9150;SDS011;4610;50.006;7.490;2023-02-28T08:37:39;3.00;;;2.07;;
9150;SDS011;4610;50.006;7.490;2023-02-28T08:40:07;4.93;;;2.00;;
9150;SDS011;4610;50.006;7.490;2023-02-28T08:42:34;4.37;;;2.03;;
9150;SDS011;4610;50.006;7.490;2023-02-28T08:45:01;3.53;;;2.40;;
9150;SDS011;4610;50.006;7.490;2023-02-28T08:47:30;3.33;;;2.40;;
9150;SDS011;4610;50.006;7.490;2023-02-28T08:49:57;3.17;;;2.00;;
9150;SDS011;4610;50.006;7.490;2023-02-28T08:52:23;4.07;;;2.10;;
9150;SDS011;4610;50.006;7.490;2023-02-28T08:54:50;2.47;;;1.93;;
9150;SDS011;4610;50.006;7.490;2023-02-28T08:57:17;2.23;;;1.83;;
9150;SDS011;4610;50.006;7.490;2023-02-28T08:59:44;3.30;;;2.00;;
9150;SDS011;4610;50.006;7.490;2023-02-28T09:02:12;2.77;;;1.87;;
9150;SDS011;4610;50.006;7.490;2023-02-28T09:04:41;2.87;;;2.00;;
9150;SDS011;4610;50.006;7.490;2023-02-28T09:07:10;2.30;;;2.10;;
9150;SDS011;4610;50.006;7.490;2023-02-28T09:09:37;3.00;;;2.00;;
9150;SDS011;4610;50.006;7.490;2023-02-28T09:12:18;2.97;;;1.90;;
9150;SDS011;4610;50.006;7.490;2023-02-28T09:14:45;2.90;;;1.60;;
9150;SDS011;4610;50.006;7.490;2023-02-28T09:17:12;1.90;;;1.67;;
9150;SDS011;4610;50.006;7.490;2023-02-28T09:19:40;2.50;;;1.90;;
9150;SDS011;4610;50.006;7.490;2023-02-28T09:22:07;2.33;;;1.80;;
9150;SDS011;4610;50.006;7.490;2023-02-28T09:24:35;2.47;;;1.80;;
9150;SDS011;4610;50.006;7.490;2023-02-28T09:27:02;2.00;;;1.80;;
9150;SDS011;4610;50.006;7.490;2023-02-28T09:29:29;3.07;;;2.20;;
9150;SDS011;4610;50.006;7.490;2023-02-28T09:31:56;2.33;;;1.80;;
9150;SDS011;4610;50.006;7.490;2023-02-28T09:34:23;2.20;;;1.90;;
9150;SDS011;4610;50.006;7.490;2023-02-28T09:36:51;2.17;;;1.90;;
9150;SDS011;4610;50.006;7.490;2023-02-28T09:39:19;2.17;;;1.93;;
9150;SDS011;4610;50.006;7.490;2023-02-28T09:41:48;4.43;;;1.87;;
9150;SDS011;4610;50.006;7.490;2023-02-28T09:44:18;2.30;;;1.80;;
9150;SDS011;4610;50.006;7.490;2023-02-28T09:46:51;2.53;;;1.77;;
9150;SDS011;4610;50.006;7.490;2023-02-28T09:49:25;2.67;;;2.17;;
9150;SDS011;4610;50.006;7.490;2023-02-28T09:52:01;2.77;;;2.00;;
9150;SDS011;4610;50.006;7.490;2023-02-28T09:54:31;6.20;;;2.47;;
9150;SDS011;4610;50.006;7.490;2023-02-28T09:56:59;5.40;;;2.70;;
9150;SDS011;4610;50.006;7.490;2023-02-28T09:59:35;3.33;;;2.23;;
9150;SDS011;4610;50.006;7.490;2023-02-28T10:02:22;4.10;;;2.40;;
9150;SDS011;4610;50.006;7.490;2023-02-28T10:05:07;2.23;;;1.83;;
9150;SDS011;4610;50.006;7.490;2023-02-28T10:07:46;4.27;;;2.40;;
9150;SDS011;4610;50.006;7.490;2023-02-28T10:10:21;2.20;;;2.00;;
9150;SDS011;4610;50.006;7.490;2023-02-28T10:12:52;4.43;;;3.33;;
9150;SDS011;4610;50.006;7.490;2023-02-28T10:15:23;5.43;;;2.60;;
9150;SDS011;4610;50.006;7.490;2023-02-28T10:17:53;4.30;;;2.73;;
9150;SDS011;4610;50.006;7.490;2023-02-28T10:20:24;3.20;;;2.10;;
9150;SDS011;4610;50.006;7.490;2023-02-28T10:22:58;4.80;;;3.00;;
9150;SDS011;4610;50.006;7.490;2023-02-28T10:25:32;3.93;;;2.90;;
9150;SDS011;4610;50.006;7.490;2023-02-28T10:28:04;2.50;;;2.30;;
9150;SDS011;4610;50.006;7.490;2023-02-28T10:30:36;3.20;;;2.70;;
9150;SDS011;4610;50.006;7.490;2023-02-28T10:33:08;3.83;;;3.00;;
9150;SDS011;4610;50.006;7.490;2023-02-28T10:35:45;4.40;;;3.00;;
9150;SDS011;4610;50.006;7.490;2023-02-28T10:38:16;9.07;;;2.63;;
9150;SDS011;4610;50.006;7.490;2023-02-28T10:40:45;4.83;;;2.70;;
9150;SDS011;4610;50.006;7.490;2023-02-28T10:43:21;4.83;;;2.70;;
9150;SDS011;4610;50.006;7.490;2023-02-28T10:45:55;4.27;;;2.70;;
9150;SDS011;4610;50.006;7.490;2023-02-28T10:48:34;4.87;;;2.63;;
9150;SDS011;4610;50.006;7.490;2023-02-28T10:51:03;4.03;;;2.60;;
9150;SDS011;4610;50.006;7.490;2023-02-28T10:53:34;4.47;;;2.27;;
9150;SDS011;4610;50.006;7.490;2023-02-28T10:56:05;2.90;;;2.30;;
9150;SDS011;4610;50.006;7.490;2023-02-28T10:58:47;8.67;;;2.37;;
9150;SDS011;4610;50.006;7.490;2023-02-28T11:01:17;3.30;;;2.27;;
9150;SDS011;4610;50.006;7.490;2023-02-28T11:03:46;3.67;;;2.40;;
9150;SDS011;4610;50.006;7.490;2023-02-28T11:06:14;4.53;;;2.27;;
9150;SDS011;4610;50.006;7.490;2023-02-28T11:08:48;3.33;;;2.40;;
9150;SDS011;4610;50.006;7.490;2023-02-28T11:11:17;2.77;;;2.30;;
9150;SDS011;4610;50.006;7.490;2023-02-28T11:13:46;2.87;;;2.27;;
9150;SDS011;4610;50.006;7.490;2023-02-28T11:16:15;3.17;;;2.57;;
9150;SDS011;4610;50.006;7.490;2023-02-28T11:18:44;3.60;;;2.40;;
9150;SDS011;4610;50.006;7.490;2023-02-28T11:21:21;2.80;;;2.47;;
9150;SDS011;4610;50.006;7.490;2023-02-28T11:24:03;2.80;;;2.47;;
9150;SDS011;4610;50.006;7.490;2023-02-28T11:26:39;3.77;;;2.67;;
9150;SDS011;4610;50.006;7.490;2023-02-28T11:29:12;3.17;;;2.60;;
9150;SDS011;4610;50.006;7.490;2023-02-28T11:31:52;3.80;;;2.90;;
9150;SDS011;4610;50.006;7.490;2023-02-28T11:34:28;4.10;;;2.50;;
9150;SDS011;4610;50.006;7.490;2023-02-28T11:36:56;4.30;;;2.50;;
9150;SDS011;4610;50.006;7.490;2023-02-28T11:39:26;4.03;;;2.60;;
9150;SDS011;4610;50.006;7.490;2023-02-28T11:42:05;4.63;;;2.73;;
9150;SDS011;4610;50.006;7.490;2023-02-28T11:44:43;3.70;;;2.50;;
9150;SDS011;4610;50.006;7.490;2023-02-28T11:47:22;6.83;;;3.93;;
9150;SDS011;4610;50.006;7.490;2023-02-28T11:50:00;4.67;;;2.73;;
9150;SDS011;4610;50.006;7.490;2023-02-28T11:52:43;3.67;;;2.70;;
9150;SDS011;4610;50.006;7.490;2023-02-28T11:55:17;3.33;;;2.30;;
9150;SDS011;4610;50.006;7.490;2023-02-28T11:58:13;4.80;;;2.57;;
9150;SDS011;4610;50.006;7.490;2023-02-28T12:00:51;4.70;;;2.90;;
9150;SDS011;4610;50.006;7.490;2023-02-28T12:03:35;4.90;;;2.47;;
9150;SDS011;4610;50.006;7.490;2023-02-28T12:06:13;3.80;;;2.63;;
9150;SDS011;4610;50.006;7.490;2023-02-28T12:08:53;4.33;;;3.00;;
9150;SDS011;4610;50.006;7.490;2023-02-28T12:11:33;4.37;;;2.80;;
9150;SDS011;4610;50.006;7.490;2023-02-28T12:17:14;5.07;;;2.67;;
9150;SDS011;4610;50.006;7.490;2023-02-28T12:19:48;4.43;;;2.70;;
9150;SDS011;4610;50.006;7.490;2023-02-28T12:22:28;6.20;;;3.37;;
9150;SDS011;4610;50.006;7.490;2023-02-28T12:28:07;6.17;;;2.90;;
9150;SDS011;4610;50.006;7.490;2023-02-28T12:30:35;3.37;;;2.70;;
9150;SDS011;4610;50.006;7.490;2023-02-28T12:33:07;4.00;;;2.80;;
9150;SDS011;4610;50.006;7.490;2023-02-28T12:35:38;6.00;;;2.90;;
9150;SDS011;4610;50.006;7.490;2023-02-28T12:38:12;4.50;;;3.03;;
9150;SDS011;4610;50.006;7.490;2023-02-28T12:40:45;4.53;;;2.87;;
9150;SDS011;4610;50.006;7.490;2023-02-28T12:43:18;5.00;;;3.17;;
9150;SDS011;4610;50.006;7.490;2023-02-28T12:45:46;5.27;;;3.73;;
9150;SDS011;4610;50.006;7.490;2023-02-28T12:48:18;8.40;;;2.90;;
9150;SDS011;4610;50.006;7.490;2023-02-28T12:50:50;4.17;;;2.80;;
9150;SDS011;4610;50.006;7.490;2023-02-28T12:53:18;5.53;;;2.80;;
9150;SDS011;4610;50.006;7.490;2023-02-28T12:55:56;5.10;;;2.80;;
9150;SDS011;4610;50.006;7.490;2023-02-28T12:58:31;4.43;;;2.97;;
9150;SDS011;4610;50.006;7.490;2023-02-28T13:01:11;4.67;;;2.70;;
9150;SDS011;4610;50.006;7.490;2023-02-28T13:07:08;3.63;;;3.03;;
9150;SDS011;4610;50.006;7.490;2023-02-28T13:09:57;3.57;;;2.80;;
9150;SDS011;4610;50.006;7.490;2023-02-28T13:12:25;4.20;;;2.73;;
9150;SDS011;4610;50.006;7.490;2023-02-28T13:15:01;3.87;;;2.70;;
9150;SDS011;4610;50.006;7.490;2023-02-28T13:17:36;7.33;;;3.00;;
9150;SDS011;4610;50.006;7.490;2023-02-28T13:20:14;3.70;;;2.80;;
9150;SDS011;4610;50.006;7.490;2023-02-28T13:22:43;4.70;;;2.93;;
9150;SDS011;4610;50.006;7.490;2023-02-28T13:28:55;4.90;;;3.33;;
9150;SDS011;4610;50.006;7.490;2023-02-28T13:31:24;2.90;;;2.60;;
9150;SDS011;4610;50.006;7.490;2023-02-28T13:34:04;4.63;;;2.70;;
9150;SDS011;4610;50.006;7.490;2023-02-28T13:36:32;4.00;;;3.13;;
9150;SDS011;4610;50.006;7.490;2023-02-28T13:38:59;3.37;;;2.83;;
9150;SDS011;4610;50.006;7.490;2023-02-28T13:41:45;6.73;;;3.90;;
9150;SDS011;4610;50.006;7.490;2023-02-28T13:44:13;4.57;;;3.30;;
9150;SDS011;4610;50.006;7.490;2023-02-28T13:49:49;4.93;;;3.00;;
9150;SDS011;4610;50.006;7.490;2023-02-28T13:52:18;3.90;;;2.70;;
9150;SDS011;4610;50.006;7.490;2023-02-28T13:54:56;5.63;;;3.10;;
9150;SDS011;4610;50.006;7.490;2023-02-28T13:57:48;3.70;;;2.90;;
9150;SDS011;4610;50.006;7.490;2023-02-28T14:00:35;4.53;;;3.03;;
9150;SDS011;4610;50.006;7.490;2023-02-28T14:03:13;6.33;;;3.30;;
9150;SDS011;4610;50.006;7.490;2023-02-28T14:06:09;3.70;;;3.10;;
9150;SDS011;4610;50.006;7.490;2023-02-28T14:08:45;8.67;;;3.20;;
9150;SDS011;4610;50.006;7.490;2023-02-28T14:11:24;4.03;;;3.10;;
9150;SDS011;4610;50.006;7.490;2023-02-28T14:13:56;5.27;;;3.17;;
9150;SDS011;4610;50.006;7.490;2023-02-28T14:16:24;5.53;;;3.20;;
9150;SDS011;4610;50.006;7.490;2023-02-28T14:18:56;4.63;;;3.10;;
9150;SDS011;4610;50.006;7.490;2023-02-28T14:21:27;4.13;;;3.20;;
9150;SDS011;4610;50.006;7.490;2023-02-28T14:27:05;4.00;;;2.87;;
9150;SDS011;4610;50.006;7.490;2023-02-28T14:32:59;5.13;;;3.10;;
9150;SDS011;4610;50.006;7.490;2023-02-28T14:35:56;4.13;;;3.20;;
9150;SDS011;4610;50.006;7.490;2023-02-28T14:38:39;5.67;;;3.40;;
9150;SDS011;4610;50.006;7.490;2023-02-28T14:41:12;7.63;;;3.10;;
9150;SDS011;4610;50.006;7.490;2023-02-28T14:43:51;4.00;;;3.13;;
9150;SDS011;4610;50.006;7.490;2023-02-28T14:46:22;4.00;;;2.90;;
9150;SDS011;4610;50.006;7.490;2023-02-28T14:48:52;3.93;;;3.23;;
9150;SDS011;4610;50.006;7.490;2023-02-28T14:51:21;5.33;;;3.20;;
9150;SDS011;4610;50.006;7.490;2023-02-28T14:53:50;4.53;;;3.53;;
9150;SDS011;4610;50.006;7.490;2023-02-28T14:56:22;6.37;;;3.67;;
9150;SDS011;4610;50.006;7.490;2023-02-28T14:58:52;5.33;;;3.83;;
9150;SDS011;4610;50.006;7.490;2023-02-28T15:01:21;5.23;;;3.30;;
9150;SDS011;4610;50.006;7.490;2023-02-28T15:03:56;7.47;;;3.80;;
9150;SDS011;4610;50.006;7.490;2023-02-28T15:06:25;5.17;;;3.63;;
9150;SDS011;4610;50.006;7.490;2023-02-28T15:09:06;4.77;;;3.30;;
9150;SDS011;4610;50.006;7.490;2023-02-28T15:11:34;5.03;;;3.37;;
9150;SDS011;4610;50.006;7.490;2023-02-28T15:14:03;5.90;;;4.10;;
9150;SDS011;4610;50.006;7.490;2023-02-28T15:16:31;5.50;;;3.43;;
9150;SDS011;4610;50.006;7.490;2023-02-28T15:19:04;8.47;;;4.07;;
9150;SDS011;4610;50.006;7.490;2023-02-28T15:21:35;6.47;;;3.77;;
9150;SDS011;4610;50.006;7.490;2023-02-28T15:24:06;4.60;;;3.30;;
9150;SDS011;4610;50.006;7.490;2023-02-28T15:26:39;4.77;;;3.30;;
9150;SDS011;4610;50.006;7.490;2023-02-28T15:29:11;4.97;;;3.40;;
9150;SDS011;4610;50.006;7.490;2023-02-28T15:31:42;6.17;;;3.70;;
9150;SDS011;4610;50.006;7.490;2023-02-28T15:34:16;6.90;;;3.53;;
9150;SDS011;4610;50.006;7.490;2023-02-28T15:36:47;5.73;;;3.10;;
9150;SDS011;4610;50.006;7.490;2023-02-28T15:39:19;4.93;;;3.33;;
9150;SDS011;4610;50.006;7.490;2023-02-28T15:41:47;4.20;;;3.37;;
9150;SDS011;4610;50.006;7.490;2023-02-28T15:44:15;4.37;;;3.13;;
9150;SDS011;4610;50.006;7.490;2023-02-28T15:46:52;6.43;;;3.20;;
9150;SDS011;4610;50.006;7.490;2023-02-28T15:49:21;6.30;;;3.60;;
9150;SDS011;4610;50.006;7.490;2023-02-28T15:51:50;5.90;;;4.20;;
9150;SDS011;4610;50.006;7.490;2023-02-28T15:54:20;4.20;;;3.10;;
9150;SDS011;4610;50.006;7.490;2023-02-28T15:56:49;7.23;;;3.33;;
9150;SDS011;4610;50.006;7.490;2023-02-28T15:59:20;5.70;;;3.47;;
9150;SDS011;4610;50.006;7.490;2023-02-28T16:02:02;4.63;;;3.10;;
9150;SDS011;4610;50.006;7.490;2023-02-28T16:04:55;5.67;;;3.67;;
9150;SDS011;4610;50.006;7.490;2023-02-28T16:07:28;5.13;;;3.30;;
9150;SDS011;4610;50.006;7.490;2023-02-28T16:09:55;5.20;;;3.93;;
9150;SDS011;4610;50.006;7.490;2023-02-28T16:12:24;3.93;;;3.10;;
9150;SDS011;4610;50.006;7.490;2023-02-28T16:14:54;5.60;;;3.77;;
9150;SDS011;4610;50.006;7.490;2023-02-28T16:17:24;5.37;;;3.63;;
9150;SDS011;4610;50.006;7.490;2023-02-28T16:19:52;6.53;;;3.53;;
9150;SDS011;4610;50.006;7.490;2023-02-28T16:22:19;5.17;;;3.33;;
9150;SDS011;4610;50.006;7.490;2023-02-28T16:24:47;4.70;;;3.67;;
9150;SDS011;4610;50.006;7.490;2023-02-28T16:27:16;4.90;;;3.30;;
9150;SDS011;4610;50.006;7.490;2023-02-28T16:29:45;4.50;;;3.40;;
9150;SDS011;4610;50.006;7.490;2023-02-28T16:32:14;5.90;;;3.20;;
9150;SDS011;4610;50.006;7.490;2023-02-28T16:34:42;5.10;;;3.60;;
9150;SDS011;4610;50.006;7.490;2023-02-28T16:37:11;10.33;;;3.70;;
9150;SDS011;4610;50.006;7.490;2023-02-28T16:39:39;7.63;;;3.87;;
9150;SDS011;4610;50.006;7.490;2023-02-28T16:42:09;9.20;;;3.70;;
9150;SDS011;4610;50.006;7.490;2023-02-28T16:44:41;6.07;;;3.47;;
9150;SDS011;4610;50.006;7.490;2023-02-28T16:47:08;7.60;;;3.93;;
9150;SDS011;4610;50.006;7.490;2023-02-28T16:49:37;6.33;;;4.03;;
9150;SDS011;4610;50.006;7.490;2023-02-28T16:52:04;7.83;;;4.60;;
9150;SDS011;4610;50.006;7.490;2023-02-28T16:54:31;7.00;;;4.40;;
9150;SDS011;4610;50.006;7.490;2023-02-28T16:56:58;4.30;;;3.30;;
9150;SDS011;4610;50.006;7.490;2023-02-28T16:59:27;6.73;;;4.70;;
9150;SDS011;4610;50.006;7.490;2023-02-28T17:01:55;5.47;;;3.47;;
9150;SDS011;4610;50.006;7.490;2023-02-28T17:04:23;6.20;;;3.60;;
9150;SDS011;4610;50.006;7.490;2023-02-28T17:06:50;4.53;;;3.30;;
9150;SDS011;4610;50.006;7.490;2023-02-28T17:09:17;5.17;;;3.40;;
9150;SDS011;4610;50.006;7.490;2023-02-28T17:11:45;24.17;;;10.10;;
9150;SDS011;4610;50.006;7.490;2023-02-28T17:14:13;24.73;;;11.83;;
9150;SDS011;4610;50.006;7.490;2023-02-28T17:16:41;6.83;;;3.40;;
9150;SDS011;4610;50.006;7.490;2023-02-28T17:19:09;3.93;;;3.23;;
9150;SDS011;4610;50.006;7.490;2023-02-28T17:21:38;5.03;;;3.20;;
9150;SDS011;4610;50.006;7.490;2023-02-28T17:24:08;7.27;;;3.50;;
9150;SDS011;4610;50.006;7.490;2023-02-28T17:26:37;4.30;;;3.20;;
9150;SDS011;4610;50.006;7.490;2023-02-28T17:29:05;6.50;;;3.80;;
9150;SDS011;4610;50.006;7.490;2023-02-28T17:31:37;5.17;;;3.33;;
9150;SDS011;4610;50.006;7.490;2023-02-28T17:34:05;5.27;;;3.60;;
9150;SDS011;4610;50.006;7.490;2023-02-28T17:36:33;5.20;;;3.50;;
9150;SDS011;4610;50.006;7.490;2023-02-28T17:39:02;5.13;;;3.90;;
9150;SDS011;4610;50.006;7.490;2023-02-28T17:41:29;6.40;;;3.20;;
9150;SDS011;4610;50.006;7.490;2023-02-28T17:43:56;4.63;;;3.23;;
9150;SDS011;4610;50.006;7.490;2023-02-28T17:46:23;4.50;;;3.30;;
9150;SDS011;4610;50.006;7.490;2023-02-28T17:48:51;4.03;;;3.13;;
9150;SDS011;4610;50.006;7.490;2023-02-28T17:51:21;5.70;;;3.27;;
9150;SDS011;4610;50.006;7.490;2023-02-28T17:53:49;4.23;;;3.00;;
9150;SDS011;4610;50.006;7.490;2023-02-28T17:56:17;6.03;;;3.20;;
9150;SDS011;4610;50.006;7.490;2023-02-28T17:58:45;4.17;;;3.13;;
9150;SDS011;4610;50.006;7.490;2023-02-28T18:01:13;5.07;;;3.43;;
9150;SDS011;4610;50.006;7.490;2023-02-28T18:03:40;5.20;;;3.20;;
9150;SDS011;4610;50.006;7.490;2023-02-28T18:06:08;3.87;;;2.97;;
9150;SDS011;4610;50.006;7.490;2023-02-28T18:08:42;4.30;;;3.50;;
9150;SDS011;4610;50.006;7.490;2023-02-28T18:11:09;5.13;;;3.50;;
9150;SDS011;4610;50.006;7.490;2023-02-28T18:13:42;4.97;;;3.83;;
9150;SDS011;4610;50.006;7.490;2023-02-28T18:16:10;4.97;;;2.90;;
9150;SDS011;4610;50.006;7.490;2023-02-28T18:18:37;4.40;;;3.30;;
9150;SDS011;4610;50.006;7.490;2023-02-28T18:21:04;6.77;;;3.30;;
9150;SDS011;4610;50.006;7.490;2023-02-28T18:23:32;5.47;;;3.60;;
9150;SDS011;4610;50.006;7.490;2023-02-28T18:26:00;4.43;;;3.30;;
9150;SDS011;4610;50.006;7.490;2023-02-28T18:28:27;5.40;;;3.70;;
9150;SDS011;4610;50.006;7.490;2023-02-28T18:30:54;6.80;;;3.27;;
9150;SDS011;4610;50.006;7.490;2023-02-28T18:33:20;10.07;;;5.40;;
9150;SDS011;4610;50.006;7.490;2023-02-28T18:35:54;4.20;;;3.07;;
9150;SDS011;4610;50.006;7.490;2023-02-28T18:38:21;7.97;;;3.63;;
9150;SDS011;4610;50.006;7.490;2023-02-28T18:40:51;5.30;;;3.43;;
9150;SDS011;4610;50.006;7.490;2023-02-28T18:43:21;6.97;;;3.60;;
9150;SDS011;4610;50.006;7.490;2023-02-28T18:45:48;6.50;;;3.63;;
9150;SDS011;4610;50.006;7.490;2023-02-28T18:48:15;5.17;;;3.80;;
9150;SDS011;4610;50.006;7.490;2023-02-28T18:50:43;5.03;;;3.20;;
9150;SDS011;4610;50.006;7.490;2023-02-28T18:53:10;6.07;;;3.43;;